Time;durP1;ratioP1;P1;durP2;ratioP2;P2;SDS_P1;SDS_P2;PMS_P1;PMS_P2;Temp;Humidity;BMP_temperature;BMP_pressure;BME280_temperature;BME280_humidity;BME280_pressure;Samples;Min_cycle;Max_cycle;Signal;HPM_P1;HPM_P2
2022/03/21 00:02:52;;;;;;;33.92;17.77;;;;;;;-1.58;63.80;102784.62;5568674;32;33998;-64
2022/03/21 00:05:56;;;;;;;32.63;18.35;;;;;;;-1.63;64.09;102789.09;5570229;32;34329;-64
2022/03/21 00:08:58;;;;;;;34.97;18.52;;;;;;;-1.66;64.65;102783.09;5571108;32;35462;-64
2022/03/21 00:12:04;;;;;;;42.67;20.12;;;;;;;-1.54;64.67;102780.22;5571538;32;34676;-64
2022/03/21 00:15:10;;;;;;;39.50;19.42;;;;;;;-1.55;65.64;102775.94;5571077;32;34389;-64
2022/03/21 00:18:14;;;;;;;36.22;18.67;;;;;;;-1.37;64.39;102779.00;5571547;32;35217;-64
2022/03/21 00:21:17;;;;;;;32.20;18.67;;;;;;;-1.54;64.44;102775.87;5571485;32;34791;-64
2022/03/21 00:24:20;;;;;;;37.38;19.20;;;;;;;-1.58;65.04;102779.44;5571085;32;33991;-64
2022/03/21 00:27:22;;;;;;;37.72;19.35;;;;;;;-1.72;65.44;102781.47;5570867;32;34711;-64
2022/03/21 00:30:27;;;;;;;36.65;18.48;;;;;;;-1.76;65.74;102780.69;5571142;32;34302;-64
2022/03/21 00:33:29;;;;;;;36.13;19.60;;;;;;;-1.86;66.30;102773.94;5571017;32;34005;-64
2022/03/21 00:36:34;;;;;;;33.60;17.95;;;;;;;-1.82;66.58;102777.31;5571251;32;33999;-64
2022/03/21 00:39:51;;;;;;;35.33;17.50;;;;;;;-1.89;66.81;102771.38;5570831;32;34246;-64
2022/03/21 00:42:54;;;;;;;33.42;18.27;;;;;;;-1.77;67.62;102767.69;5570973;32;33878;-64
2022/03/21 00:45:58;;;;;;;36.05;18.42;;;;;;;-1.56;67.78;102772.47;5571206;32;34258;-64
2022/03/21 00:49:01;;;;;;;32.58;17.50;;;;;;;-1.39;67.16;102772.94;5570859;32;35234;-64
2022/03/21 00:52:04;;;;;;;38.50;18.30;;;;;;;-1.40;67.32;102765.16;5557161;32;33900;-64
2022/03/21 00:55:09;;;;;;;33.85;18.30;;;;;;;-1.38;67.32;102766.84;5570642;32;34086;-64
2022/03/21 00:58:12;;;;;;;39.00;19.85;;;;;;;-1.45;67.67;102767.00;5570853;32;34024;-64
2022/03/21 01:01:15;;;;;;;33.40;18.33;;;;;;;-1.51;67.74;102767.16;5570791;32;34145;-64
2022/03/21 01:04:18;;;;;;;36.83;19.08;;;;;;;-1.50;67.66;102763.69;5570861;32;35223;-64
2022/03/21 01:07:20;;;;;;;32.35;17.85;;;;;;;-1.61;68.06;102769.09;5570858;32;33955;-64
2022/03/21 01:10:26;;;;;;;44.17;19.42;;;;;;;-1.58;67.56;102763.81;5570627;32;34483;-64
2022/03/21 01:13:28;;;;;;;36.22;18.85;;;;;;;-1.74;68.23;102762.41;5570638;32;34282;-64
2022/03/21 01:16:31;;;;;;;31.58;18.10;;;;;;;-1.89;68.52;102755.78;5570437;32;34674;-64
2022/03/21 01:19:34;;;;;;;35.90;17.80;;;;;;;-2.02;69.13;102758.66;5570774;32;35193;-64
2022/03/21 01:22:37;;;;;;;37.05;17.77;;;;;;;-2.13;69.65;102748.44;5571045;32;34029;-64
2022/03/21 01:25:40;;;;;;;34.63;16.75;;;;;;;-2.21;70.32;102756.41;5570482;32;34664;-64
2022/03/21 01:28:43;;;;;;;32.83;16.92;;;;;;;-2.34;70.53;102760.12;5570428;32;34295;-64
2022/03/21 01:31:45;;;;;;;32.55;17.65;;;;;;;-2.33;70.62;102759.25;5570544;32;34602;-64
2022/03/21 01:34:48;;;;;;;34.08;16.77;;;;;;;-2.12;70.22;102755.37;5570432;32;34588;-64
2022/03/21 01:37:51;;;;;;;34.03;16.90;;;;;;;-2.31;71.04;102752.25;5570743;32;34341;-64
2022/03/21 01:40:54;;;;;;;35.30;19.02;;;;;;;-2.30;71.15;102751.38;5570371;32;34593;-64
2022/03/21 01:44:05;;;;;;;32.03;18.10;;;;;;;-2.40;71.43;102752.41;5570351;32;33930;-64
2022/03/21 01:47:08;;;;;;;38.65;18.10;;;;;;;-2.43;71.66;102756.81;5570369;32;33943;-64
2022/03/21 01:50:12;;;;;;;36.15;19.67;;;;;;;-2.44;71.71;102744.72;5570366;32;34595;-64
2022/03/21 01:56:38;;;;;;;37.28;19.75;;;;;;;-2.12;71.01;102738.91;5570193;32;33895;-64
2022/03/21 01:59:41;;;;;;;33.45;18.85;;;;;;;-2.33;71.34;102734.97;5570252;32;35343;-64
2022/03/21 02:02:44;;;;;;;42.53;17.27;;;;;;;-2.48;71.94;102748.25;5570289;32;34205;-64
2022/03/21 02:05:47;;;;;;;34.25;17.05;;;;;;;-2.57;72.52;102749.28;5570192;32;34549;-64
2022/03/21 02:08:50;;;;;;;35.53;18.00;;;;;;;-2.55;72.85;102739.69;5570171;32;33915;-64
2022/03/21 02:11:54;;;;;;;36.42;17.75;;;;;;;-2.43;71.79;102731.69;5570109;32;34158;-64
2022/03/21 02:14:57;;;;;;;34.40;16.87;;;;;;;-2.55;72.31;102744.03;5570121;32;33911;-64
2022/03/21 02:18:03;;;;;;;34.63;17.65;;;;;;;-2.64;72.94;102739.84;5570102;32;34131;-64
2022/03/21 02:21:10;;;;;;;37.65;17.65;;;;;;;-2.74;73.58;102736.56;5570126;32;34633;-64
2022/03/21 02:24:30;;;;;;;34.45;17.80;;;;;;;-2.60;74.01;102735.47;5543614;32;34001;-64
2022/03/21 02:27:34;;;;;;;34.17;17.98;;;;;;;-2.36;72.96;102735.03;5569050;32;34691;-64
2022/03/21 02:30:39;;;;;;;35.78;17.75;;;;;;;-2.31;73.17;102734.06;5570034;32;34677;-64
2022/03/21 02:33:42;;;;;;;32.63;18.15;;;;;;;-2.28;72.75;102741.81;5569976;32;34034;-64
2022/03/21 02:36:45;;;;;;;32.50;17.70;;;;;;;-2.60;73.42;102731.13;5569959;32;35225;-64
2022/03/21 02:39:49;;;;;;;36.53;18.40;;;;;;;-2.65;73.92;102732.94;5569871;32;33927;-64
2022/03/21 02:42:52;;;;;;;31.98;18.00;;;;;;;-2.65;73.76;102726.00;5569836;32;34187;-64
2022/03/21 02:46:05;;;;;;;33.83;17.90;;;;;;;-2.58;73.72;102733.69;5556532;32;33948;-64
2022/03/21 02:49:08;;;;;;;32.60;18.45;;;;;;;-2.74;74.32;102738.28;5569821;32;33895;-64
2022/03/21 02:52:14;;;;;;;34.88;18.17;;;;;;;-2.77;74.67;102734.03;5569882;32;34009;-64
2022/03/21 02:55:16;;;;;;;36.88;19.02;;;;;;;-2.39;72.78;102738.53;5569767;32;34104;-64
2022/03/21 02:58:19;;;;;;;32.08;18.33;;;;;;;-2.39;72.30;102737.69;5569743;32;34046;-64
2022/03/21 03:01:22;;;;;;;33.28;18.00;;;;;;;-2.37;72.97;102736.75;5569730;32;34617;-64
2022/03/21 03:04:27;;;;;;;33.90;18.05;;;;;;;-2.16;71.41;102739.84;5569835;32;34383;-64
2022/03/21 03:07:29;;;;;;;36.88;18.33;;;;;;;-2.04;71.03;102734.44;5569658;32;34272;-64
2022/03/21 03:10:33;;;;;;;31.92;16.87;;;;;;;-2.29;71.48;102731.44;5569820;32;34159;-64
2022/03/21 03:13:35;;;;;;;32.58;17.75;;;;;;;-2.42;72.45;102730.78;5569426;32;34938;-64
2022/03/21 03:16:38;;;;;;;35.28;17.60;;;;;;;-2.30;72.26;102734.91;5569385;32;33691;-64
2022/03/21 03:19:41;;;;;;;33.92;17.30;;;;;;;-2.43;73.35;102736.91;5569734;32;33945;-64
2022/03/21 03:22:45;;;;;;;33.42;18.30;;;;;;;-2.60;73.70;102740.66;5569504;32;34396;-64
2022/03/21 03:25:54;;;;;;;32.83;16.83;;;;;;;-2.68;74.40;102738.19;5569688;32;35256;-64
2022/03/21 03:28:56;;;;;;;31.08;16.60;;;;;;;-2.73;75.00;102738.28;5569116;32;33874;-64
2022/03/21 03:32:03;;;;;;;31.62;17.23;;;;;;;-2.89;75.54;102739.41;5569450;32;33858;-64
2022/03/21 03:35:07;;;;;;;33.03;16.48;;;;;;;-2.83;75.69;102736.72;5569253;32;34009;-64
2022/03/21 03:38:09;;;;;;;31.05;16.85;;;;;;;-2.83;75.44;102744.50;5569005;32;34379;-64
2022/03/21 03:41:13;;;;;;;29.45;16.08;;;;;;;-2.83;75.49;102747.09;5557409;32;34638;-64
2022/03/21 03:44:17;;;;;;;30.45;15.50;;;;;;;-2.83;75.49;102741.03;5571517;32;34155;-64
2022/03/21 03:47:20;;;;;;;32.25;14.55;;;;;;;-2.89;75.98;102746.34;5571459;32;34672;-64
2022/03/21 03:50:23;;;;;;;32.25;16.10;;;;;;;-2.86;75.85;102748.91;5571403;32;34623;-64
2022/03/21 03:53:26;;;;;;;31.92;15.73;;;;;;;-3.01;76.55;102741.34;5571693;32;34602;-64
2022/03/21 03:56:28;;;;;;;29.27;15.48;;;;;;;-3.11;77.44;102748.41;5571524;32;34417;-64
2022/03/21 03:59:31;;;;;;;28.25;15.60;;;;;;;-2.94;76.80;102749.00;5571292;32;34025;-64
2022/03/21 04:03:44;;;;;;;28.00;15.23;;;;;;;-2.94;75.69;102746.41;5571625;32;34288;-64
2022/03/21 04:05:57;;;;;;;30.08;15.85;;;;;;;-2.96;75.05;102753.38;5571528;32;34114;-64
2022/03/21 04:09:00;;;;;;;24.35;14.50;;;;;;;-3.05;75.23;102744.87;5571233;32;33938;-64
2022/03/21 04:12:04;;;;;;;30.60;14.73;;;;;;;-2.83;74.46;102748.84;5557543;32;34002;-64
2022/03/21 04:15:07;;;;;;;26.92;15.32;;;;;;;-2.70;73.27;102751.19;5571239;32;34322;-64
2022/03/21 04:18:10;;;;;;;29.98;15.25;;;;;;;-2.65;71.99;102748.53;5571361;32;34581;-64
2022/03/21 04:21:13;;;;;;;29.00;15.43;;;;;;;-2.58;71.41;102751.87;5557351;32;34590;-64
2022/03/21 04:24:16;;;;;;;31.65;14.20;;;;;;;-2.48;70.17;102746.50;5571089;32;33977;-64
2022/03/21 04:27:19;;;;;;;36.33;14.52;;;;;;;-2.77;70.95;102756.53;5557673;32;33880;-64
2022/03/21 04:30:23;;;;;;;26.10;14.55;;;;;;;-2.56;70.11;102745.78;5571052;32;33915;-64
2022/03/21 04:33:26;;;;;;;28.62;14.90;;;;;;;-2.55;70.02;102751.81;5571309;32;33953;-64
2022/03/21 04:36:29;;;;;;;28.12;14.25;;;;;;;-2.58;69.31;102755.34;5570902;32;34621;-64
2022/03/21 04:39:32;;;;;;;24.90;14.18;;;;;;;-2.86;70.93;102757.56;5571285;32;34654;-64
2022/03/21 04:42:36;;;;;;;29.42;15.25;;;;;;;-2.66;70.37;102754.59;5570891;32;33865;-64
2022/03/21 04:45:39;;;;;;;29.50;14.77;;;;;;;-2.74;70.33;102764.28;5571234;32;34518;-64
2022/03/21 04:48:42;;;;;;;28.90;14.93;;;;;;;-2.87;70.97;102757.56;5570895;32;34108;-64
2022/03/21 04:51:44;;;;;;;28.08;14.90;;;;;;;-2.94;71.35;102763.72;5570567;32;33956;-64
2022/03/21 04:54:48;;;;;;;28.00;14.25;;;;;;;-3.07;71.95;102770.84;5570896;32;34578;-64
2022/03/21 04:57:50;;;;;;;28.15;13.77;;;;;;;-2.90;71.32;102773.19;5570756;32;34027;-64
2022/03/21 05:00:54;;;;;;;26.67;14.48;;;;;;;-2.66;70.15;102770.19;5570768;32;34349;-64
2022/03/21 05:03:57;;;;;;;26.45;14.40;;;;;;;-2.72;69.96;102770.31;5570843;32;34277;-64
2022/03/21 05:07:00;;;;;;;27.67;13.95;;;;;;;-2.56;69.42;102774.34;5570861;32;34168;-64
2022/03/21 05:10:02;;;;;;;25.77;12.70;;;;;;;-2.53;68.92;102770.84;5570765;32;34006;-64
2022/03/21 05:13:06;;;;;;;28.33;13.27;;;;;;;-2.40;68.48;102773.22;5570654;32;34687;-64
2022/03/21 05:16:10;;;;;;;25.00;13.18;;;;;;;-2.30;67.97;102777.38;5570864;32;34109;-64
2022/03/21 05:19:14;;;;;;;28.40;13.90;;;;;;;-2.40;68.51;102770.62;5570952;32;33854;-64
2022/03/21 05:22:16;;;;;;;23.48;12.65;;;;;;;-2.38;69.02;102774.06;5557032;32;34033;-64
2022/03/21 05:32:03;;;;;;;28.90;13.57;;;;;;;-2.04;67.60;102779.50;5570421;32;33841;-64
2022/03/21 05:38:30;;;;;;;31.40;14.10;;;;;;;-1.81;66.96;102782.50;5559297;32;33945;-64
2022/03/21 05:41:32;;;;;;;25.05;12.85;;;;;;;-1.68;66.18;102782.25;5570762;32;34203;-64
2022/03/21 05:44:35;;;;;;;26.15;13.45;;;;;;;-1.60;66.30;102778.63;5570494;32;33993;-64
2022/03/21 05:48:50;;;;;;;21.58;11.52;;;;;;;-1.44;65.38;102784.34;5570316;32;34134;-64
2022/03/21 05:51:00;;;;;;;26.90;11.57;;;;;;;-1.39;65.27;102792.91;5570301;32;34307;-64
2022/03/21 05:54:06;;;;;;;27.27;11.90;;;;;;;-1.35;65.93;102791.97;5570333;32;34010;-64
2022/03/21 05:57:09;;;;;;;27.80;11.52;;;;;;;-1.31;66.09;102796.22;5570173;32;33955;-64
2022/03/21 06:00:21;;;;;;;23.62;12.02;;;;;;;-1.20;66.22;102794.22;5570127;32;34844;-64
2022/03/21 06:03:27;;;;;;;26.98;11.98;;;;;;;-1.21;66.55;102791.69;5569090;32;34375;-64
2022/03/21 06:06:30;;;;;;;24.40;11.88;;;;;;;-1.04;65.21;102797.34;5570253;32;33984;-64
2022/03/21 06:09:33;;;;;;;27.33;12.70;;;;;;;-0.90;64.91;102795.28;5570151;32;33910;-64
2022/03/21 06:12:36;;;;;;;30.70;14.15;;;;;;;-0.81;64.98;102802.87;5570117;32;34137;-64
2022/03/21 06:15:40;;;;;;;32.33;12.70;;;;;;;-0.62;64.20;102801.56;5570127;32;34392;-64
2022/03/21 06:18:43;;;;;;;26.92;13.55;;;;;;;-0.50;63.28;102814.31;5569845;32;34879;-64
2022/03/21 06:21:46;;;;;;;29.77;13.55;;;;;;;-0.35;62.85;102807.84;5556444;32;33899;-64
2022/03/21 06:24:49;;;;;;;23.48;12.25;;;;;;;-0.01;60.21;102806.09;5556023;32;33866;-64
2022/03/21 06:27:52;;;;;;;22.25;11.43;;;;;;;0.40;58.13;102810.13;5569500;32;33945;-65
2022/03/21 06:30:56;;;;;;;28.50;12.02;;;;;;;0.88;55.37;102815.69;5570074;32;34215;-65
2022/03/21 06:33:59;;;;;;;27.45;12.55;;;;;;;1.23;51.96;102806.75;5569785;32;34693;-65
2022/03/21 06:37:02;;;;;;;26.27;11.45;;;;;;;1.24;53.04;102815.47;5569685;32;34293;-65
2022/03/21 06:40:06;;;;;;;32.50;12.50;;;;;;;1.75;51.10;102812.87;5569738;32;34586;-65
2022/03/21 06:43:11;;;;;;;24.90;11.95;;;;;;;1.90;50.51;102811.50;5569731;32;34583;-65
2022/03/21 06:46:15;;;;;;;26.60;12.27;;;;;;;2.92;47.89;102809.47;5570027;32;34298;-65
2022/03/21 06:49:18;;;;;;;25.30;13.07;;;;;;;3.21;47.49;102816.19;5569355;32;34871;-65
2022/03/21 06:52:21;;;;;;;25.65;13.18;;;;;;;3.96;45.17;102810.44;5568906;32;34543;-65
2022/03/21 06:55:24;;;;;;;26.40;12.63;;;;;;;3.46;46.74;102818.66;5556018;32;33891;-65
2022/03/21 06:58:29;;;;;;;27.62;13.85;;;;;;;3.79;45.16;102819.03;5569510;32;34095;-65
2022/03/21 07:01:35;;;;;;;27.45;14.02;;;;;;;4.82;43.10;102817.03;5568968;32;34286;-63
2022/03/21 07:04:39;;;;;;;30.90;15.00;;;;;;;5.41;42.27;102826.50;5569362;32;34631;-63
2022/03/21 07:07:41;;;;;;;28.33;13.43;;;;;;;5.52;41.03;102825.03;5569494;32;33951;-65
2022/03/21 07:10:47;;;;;;;33.50;15.05;;;;;;;5.60;41.69;102822.91;5569546;32;34308;-64
2022/03/21 07:13:50;;;;;;;23.60;14.48;;;;;;;5.91;41.57;102826.63;5569141;32;33900;-64
2022/03/21 07:16:53;;;;;;;33.03;14.87;;;;;;;7.07;40.10;102821.28;5569204;32;34608;-65
2022/03/21 07:19:55;;;;;;;32.70;14.93;;;;;;;7.23;39.45;102814.19;5568743;32;34398;-65
2022/03/21 07:22:59;;;;;;;27.15;12.90;;;;;;;7.30;38.71;102818.22;5555489;32;35247;-63
2022/03/21 07:26:02;;;;;;;23.30;13.15;;;;;;;7.94;37.53;102828.50;5569095;32;34838;-64
2022/03/21 07:29:06;;;;;;;25.83;12.60;;;;;;;8.72;35.69;102829.91;5548662;32;33887;-64
2022/03/21 07:32:09;;;;;;;30.15;13.25;;;;;;;8.41;35.35;102825.69;5549393;32;34023;-64
2022/03/21 07:35:15;;;;;;;22.48;12.05;;;;;;;9.70;33.39;102832.38;5549282;32;34139;-65
2022/03/21 07:38:19;;;;;;;20.00;11.98;;;;;;;8.20;33.54;102826.94;5549423;32;34024;-64
2022/03/21 07:41:26;;;;;;;23.50;12.10;;;;;;;8.38;34.19;102833.78;5549087;32;35281;-64
2022/03/21 07:47:51;;;;;;;21.73;12.07;;;;;;;8.40;33.32;102831.06;5549159;32;33925;-64
2022/03/21 07:50:54;;;;;;;22.33;11.75;;;;;;;9.47;32.06;102833.91;5548001;32;34086;-64
2022/03/21 07:53:57;;;;;;;24.15;12.25;;;;;;;10.16;30.87;102832.81;5548919;32;34019;-64
2022/03/21 07:57:00;;;;;;;27.17;11.57;;;;;;;10.36;30.32;102827.78;5549576;32;33896;-64
2022/03/21 08:00:05;;;;;;;20.88;12.10;;;;;;;9.48;31.24;102831.16;5549032;32;33899;-64
2022/03/21 08:03:16;;;;;;;24.05;12.55;;;;;;;9.16;31.84;102833.22;5548895;32;34081;-65
2022/03/21 08:06:19;;;;;;;23.27;12.73;;;;;;;11.81;27.72;102830.56;5548762;32;34676;-64
2022/03/21 08:09:24;;;;;;;31.20;11.73;;;;;;;11.08;28.22;102831.50;5549122;32;33978;-65
2022/03/21 08:12:27;;;;;;;20.58;11.35;;;;;;;11.03;27.69;102833.66;5548687;32;34105;-64
2022/03/21 08:15:30;;;;;;;21.52;11.80;;;;;;;13.16;25.13;102833.19;5547915;32;34086;-64
2022/03/21 08:18:33;;;;;;;17.98;11.07;;;;;;;12.09;26.10;102823.00;5548515;32;33947;-65
2022/03/21 08:21:36;;;;;;;20.23;11.63;;;;;;;13.56;24.07;102820.91;5549077;32;34830;-65
2022/03/21 08:24:39;;;;;;;22.87;12.15;;;;;;;11.67;26.20;102829.72;5548448;32;34369;-65
2022/03/21 08:27:43;;;;;;;20.92;11.98;;;;;;;12.03;25.58;102825.28;5552984;32;34171;-66
2022/03/21 08:30:46;;;;;;;23.87;11.68;;;;;;;14.35;23.18;102814.13;5571413;32;34496;-65
2022/03/21 08:33:49;;;;;;;19.50;11.10;;;;;;;12.90;24.90;102821.91;5571044;32;34616;-65
2022/03/21 08:36:52;;;;;;;17.25;11.18;;;;;;;13.42;23.76;102818.53;5571030;32;34343;-65
2022/03/21 08:39:54;;;;;;;23.17;11.43;;;;;;;13.16;24.19;102809.19;5570650;32;34493;-65
2022/03/21 08:42:57;;;;;;;25.23;12.02;;;;;;;14.48;22.79;102806.75;5571115;32;34084;-65
2022/03/21 08:46:00;;;;;;;21.00;10.73;;;;;;;14.24;23.58;102811.53;5570769;32;34040;-65
2022/03/21 08:52:33;;;;;;;20.97;11.43;;;;;;;15.17;22.24;102798.78;5570306;32;34420;-66
2022/03/21 08:55:36;;;;;;;17.58;11.18;;;;;;;16.92;20.21;102801.81;5570748;32;34083;-66
2022/03/21 08:58:39;;;;;;;26.02;12.18;;;;;;;15.60;21.17;102803.78;5570720;32;33927;-66
2022/03/21 09:01:48;;;;;;;22.05;12.10;;;;;;;14.52;21.99;102792.19;5570926;32;34605;-66
2022/03/21 09:04:50;;;;;;;21.15;12.00;;;;;;;12.41;24.51;102790.34;5570643;32;34008;-66
2022/03/21 09:07:54;;;;;;;22.20;11.52;;;;;;;10.53;26.59;102785.97;5570874;32;33945;-65
2022/03/21 09:10:56;;;;;;;31.40;11.70;;;;;;;8.79;28.99;102782.75;5556509;32;33518;-65
2022/03/21 09:13:59;;;;;;;20.37;12.15;;;;;;;8.21;30.31;102781.91;5570494;32;33993;-66
2022/03/21 09:17:02;;;;;;;21.87;11.10;;;;;;;8.15;30.54;102773.50;5570482;32;33915;-65
2022/03/21 09:20:07;;;;;;;25.35;11.98;;;;;;;7.93;30.79;102775.75;5570275;32;34083;-64
2022/03/21 09:23:10;;;;;;;23.85;12.40;;;;;;;7.90;30.76;102775.91;5570214;32;34224;-64
2022/03/21 09:26:13;;;;;;;20.08;10.63;;;;;;;7.84;31.29;102775.34;5570282;32;33887;-65
2022/03/21 09:29:16;;;;;;;20.37;11.12;;;;;;;8.05;30.16;102761.78;5570204;32;34109;-64
2022/03/21 09:32:19;;;;;;;19.17;9.55;;;;;;;8.01;30.28;102763.75;5570329;32;34541;-64
2022/03/21 09:35:22;;;;;;;22.80;9.95;;;;;;;8.23;28.55;102765.94;5570349;32;33909;-65
2022/03/21 09:38:24;;;;;;;14.63;8.50;;;;;;;8.08;30.78;102764.25;5569947;32;34029;-64
2022/03/21 09:41:29;;;;;;;13.85;8.55;;;;;;;8.35;32.12;102764.38;5570159;32;34015;-64
2022/03/21 09:44:34;;;;;;;15.80;10.10;;;;;;;8.52;28.70;102770.28;5569806;32;34700;-65
2022/03/21 09:51:10;;;;;;;17.75;9.13;;;;;;;8.57;28.38;102764.72;5556555;32;33886;-64
2022/03/21 09:54:12;;;;;;;20.37;9.40;;;;;;;8.65;28.37;102760.66;5569877;32;34879;-64
2022/03/21 09:57:16;;;;;;;16.55;9.15;;;;;;;8.78;28.23;102758.06;5569735;32;35279;-66
2022/03/21 10:00:19;;;;;;;17.87;9.25;;;;;;;8.78;27.65;102750.12;5570049;32;34357;-64
2022/03/21 10:03:22;;;;;;;17.60;9.05;;;;;;;8.59;29.18;102758.41;5570004;32;33946;-64
2022/03/21 10:06:32;;;;;;;23.67;10.18;;;;;;;8.82;27.51;102748.97;5569861;32;34716;-64
2022/03/21 10:09:36;;;;;;;15.57;9.20;;;;;;;8.65;27.20;102742.13;5569812;32;35179;-63
2022/03/21 10:12:39;;;;;;;19.75;9.75;;;;;;;8.68;28.79;102734.00;5570027;32;34350;-64
2022/03/21 10:15:42;;;;;;;18.70;10.13;;;;;;;8.62;28.22;102733.53;5569626;32;34828;-64
2022/03/21 10:18:54;;;;;;;19.45;9.65;;;;;;;8.81;27.43;102731.37;5569583;32;33894;-64
2022/03/21 10:22:09;;;;;;;16.33;9.38;;;;;;;8.98;27.88;102717.06;5569631;32;34603;-64
2022/03/21 10:25:17;;;;;;;15.02;8.60;;;;;;;9.19;27.65;102717.47;5569533;32;34107;-65
2022/03/21 10:28:40;;;;;;;15.32;9.10;;;;;;;9.21;26.94;102713.75;5468814;32;3247568;-63
2022/03/21 10:31:48;;;;;;;19.62;9.27;;;;;;;9.03;27.67;102729.06;5569645;32;34511;-64
2022/03/21 10:35:00;;;;;;;20.02;9.30;;;;;;;8.79;27.81;102720.06;5543759;32;33893;-64
2022/03/21 10:38:04;;;;;;;17.67;9.20;;;;;;;9.02;27.22;102706.19;5569641;32;34663;-64
2022/03/21 10:41:08;;;;;;;17.25;8.88;;;;;;;9.13;27.34;102706.31;5569252;32;34002;-64
2022/03/21 10:44:11;;;;;;;16.33;9.13;;;;;;;9.22;28.17;102709.31;5569490;32;34071;-64
2022/03/21 10:47:14;;;;;;;20.70;9.00;;;;;;;9.37;27.13;102697.69;5569538;32;34085;-64
2022/03/21 10:50:50;;;;;;;22.15;9.38;;;;;;;9.46;26.94;102684.66;5568940;32;34383;-64
2022/03/21 10:53:53;;;;;;;18.27;9.13;;;;;;;9.24;27.31;102681.78;5555204;32;33902;-64
2022/03/21 10:56:57;;;;;;;21.02;9.25;;;;;;;9.25;27.03;102682.59;5572947;32;34395;-63
2022/03/21 11:00:16;;;;;;;21.62;9.70;;;;;;;9.57;26.85;102670.69;5569874;32;34184;-65
2022/03/21 11:03:20;;;;;;;15.88;9.52;;;;;;;10.34;26.43;102677.63;5569642;32;33994;-64
2022/03/21 11:06:25;;;;;;;18.12;9.57;;;;;;;12.90;22.63;102668.25;5569745;32;35275;-65
2022/03/21 11:09:28;;;;;;;12.80;9.18;;;;;;;16.33;19.92;102671.78;5555717;32;33945;-66
2022/03/21 11:12:32;;;;;;;13.38;8.40;;;;;;;18.26;18.01;102662.75;5569241;32;34881;-65
2022/03/21 11:15:37;;;;;;;14.07;8.98;;;;;;;21.07;16.08;102656.09;5569454;32;33879;-65
2022/03/21 11:18:40;;;;;;;13.25;9.18;;;;;;;21.87;14.16;102652.81;5555600;32;34713;-65
2022/03/21 11:21:44;;;;;;;16.15;8.80;;;;;;;17.73;17.25;102646.91;5569307;32;34009;-66
2022/03/21 11:24:46;;;;;;;17.50;9.02;;;;;;;19.55;15.78;102640.56;5569289;32;34708;-66
2022/03/21 11:28:10;;;;;;;15.82;9.05;;;;;;;21.09;15.02;102643.28;5568737;32;34199;-67
2022/03/21 11:31:51;;;;;;;11.32;7.70;;;;;;;24.16;13.05;102645.12;5568839;32;34037;-67
2022/03/21 11:35:12;;;;;;;15.40;7.18;;;;;;;22.65;12.83;102635.88;5557530;32;33963;-66
2022/03/21 11:38:27;;;;;;;9.48;6.47;;;;;;;21.64;13.39;102626.72;5569244;32;34544;-66
2022/03/21 11:41:33;;;;;;;11.15;6.87;;;;;;;20.56;14.45;102617.22;5568511;32;35299;-65
2022/03/21 11:44:38;;;;;;;11.80;6.80;;;;;;;18.99;14.55;102617.22;5568484;32;34703;-66
2022/03/21 11:47:41;;;;;;;9.77;6.57;;;;;;;18.69;15.37;102616.00;5570174;32;34702;-65
2022/03/21 11:50:51;;;;;;;9.30;5.97;;;;;;;21.94;13.38;102614.06;5570221;32;34684;-64
2022/03/21 11:53:54;;;;;;;10.30;6.62;;;;;;;23.18;12.03;102613.72;5568678;32;34168;-66
2022/03/21 11:57:08;;;;;;;8.75;6.30;;;;;;;19.65;14.44;102610.75;5568617;32;33967;-68
2022/03/21 12:00:16;;;;;;;10.90;6.35;;;;;;;22.68;12.57;102600.31;5568768;32;35506;-67
2022/03/21 12:03:25;;;;;;;10.48;6.43;;;;;;;26.24;11.06;102601.00;5571086;32;34579;-67
2022/03/21 12:06:32;;;;;;;10.48;6.45;;;;;;;24.15;11.94;102600.94;5570860;32;34083;-67
2022/03/21 12:09:39;;;;;;;13.02;6.53;;;;;;;22.00;12.95;102585.44;5570895;32;34006;-67
2022/03/21 12:12:41;;;;;;;13.10;6.57;;;;;;;21.60;13.17;102581.34;5571005;32;34250;-67
2022/03/21 12:15:51;;;;;;;10.32;6.20;;;;;;;22.28;12.82;102580.97;5557390;32;34424;-67
2022/03/21 12:19:02;;;;;;;12.60;7.20;;;;;;;24.45;11.73;102574.28;5571165;32;34411;-67
2022/03/21 12:22:27;;;;;;;12.70;6.25;;;;;;;26.54;10.59;102565.84;5557476;32;33921;-67
2022/03/21 12:25:30;;;;;;;10.43;5.82;;;;;;;23.54;11.34;102558.53;5570838;32;34637;-67
2022/03/21 12:32:22;;;;;;;10.10;6.40;;;;;;;25.53;10.41;102549.38;5571132;32;34163;-66
2022/03/21 12:35:32;;;;;;;9.30;6.55;;;;;;;22.00;12.78;102536.78;5571100;32;34093;-67
2022/03/21 12:38:37;;;;;;;10.50;7.25;;;;;;;23.36;12.16;102540.06;5570858;32;34195;-67
2022/03/21 12:41:41;;;;;;;12.77;6.50;;;;;;;21.07;12.89;102526.56;5570640;32;34038;-67
2022/03/21 12:44:43;;;;;;;11.65;7.45;;;;;;;21.71;13.23;102532.25;5570442;32;34038;-66
2022/03/21 12:47:48;;;;;;;15.68;7.47;;;;;;;22.02;13.68;102538.28;5571131;32;33939;-66
2022/03/21 12:50:51;;;;;;;13.30;7.57;;;;;;;22.58;12.69;102532.16;5570726;32;34125;-67
2022/03/21 12:53:57;;;;;;;11.90;7.18;;;;;;;25.29;11.00;102517.47;5570788;32;34681;-67
2022/03/21 12:57:05;;;;;;;11.10;7.18;;;;;;;25.57;10.85;102516.34;5570765;32;34456;-67
2022/03/21 13:00:16;;;;;;;13.45;7.82;;;;;;;29.40;8.78;102509.75;5570382;32;34001;-67
2022/03/21 13:03:20;;;;;;;12.37;8.38;;;;;;;24.52;10.99;102509.19;5570497;32;34874;-66
2022/03/21 13:13:06;;;;;;;17.58;7.37;;;;;;;20.44;13.29;102507.25;5570295;32;34791;-65
2022/03/21 13:16:09;;;;;;;15.02;6.57;;;;;;;20.64;13.54;102511.97;5570326;32;35302;-67
2022/03/21 13:19:22;;;;;;;9.70;6.80;;;;;;;23.30;12.03;102511.91;5570434;32;34032;-66
2022/03/21 13:22:26;;;;;;;11.88;6.53;;;;;;;21.92;12.48;102494.47;5570534;32;34413;-67
2022/03/21 13:25:37;;;;;;;9.38;6.32;;;;;;;24.30;11.36;102491.44;5570267;32;33896;-66
2022/03/21 13:28:43;;;;;;;12.13;6.28;;;;;;;22.10;12.10;102489.50;5556974;32;34545;-67
2022/03/21 13:31:56;;;;;;;10.63;6.40;;;;;;;21.22;12.73;102488.81;5570506;32;34762;-67
2022/03/21 13:34:59;;;;;;;9.52;6.28;;;;;;;22.69;12.17;102491.06;5570156;32;34209;-67
2022/03/21 13:38:05;;;;;;;9.27;6.05;;;;;;;24.33;10.88;102480.16;5570588;32;34272;-67
2022/03/21 13:41:15;;;;;;;12.30;6.15;;;;;;;26.24;9.56;102473.09;5570295;32;33882;-67
2022/03/21 13:44:21;;;;;;;11.55;6.43;;;;;;;24.41;10.88;102471.81;5569995;32;35323;-67
2022/03/21 13:47:24;;;;;;;13.25;6.18;;;;;;;24.57;10.56;102471.41;5570082;32;34859;-67
2022/03/21 13:50:38;;;;;;;6.85;5.35;;;;;;;24.36;10.70;102460.75;5570093;32;34289;-67
2022/03/21 13:53:41;;;;;;;18.42;6.07;;;;;;;24.56;9.83;102456.16;5569992;32;33934;-67
2022/03/21 13:56:49;;;;;;;11.00;5.97;;;;;;;24.23;10.98;102457.00;5570286;32;34610;-67
2022/03/21 14:00:08;;;;;;;7.87;5.78;;;;;;;21.88;12.37;102449.12;5570033;32;34599;-67
2022/03/21 14:03:35;;;;;;;13.40;6.43;;;;;;;21.39;12.12;102457.06;5570012;32;34756;-67
2022/03/21 14:06:55;;;;;;;15.27;9.38;;;;;;;25.14;10.54;102450.84;5569837;32;34234;-67
2022/03/21 14:09:58;;;;;;;8.23;5.47;;;;;;;23.04;11.26;102456.78;5569932;32;34705;-66
2022/03/21 14:13:01;;;;;;;10.68;5.78;;;;;;;27.95;8.56;102448.59;5556552;32;33835;-67
2022/03/21 14:16:05;;;;;;;10.30;6.20;;;;;;;29.36;7.62;102451.16;5569340;32;33943;-66
2022/03/21 14:19:15;;;;;;;9.77;6.32;;;;;;;22.24;11.52;102441.78;5570351;32;34271;-66
2022/03/21 14:22:18;;;;;;;9.10;6.78;;;;;;;20.63;12.71;102440.16;5556282;32;34680;-66
2022/03/21 14:28:43;;;;;;;13.98;7.03;;;;;;;21.53;12.20;102438.12;5569522;32;33901;-65
2022/03/21 14:31:47;;;;;;;9.63;6.15;;;;;;;22.30;11.33;102435.59;5570041;32;33998;-65
2022/03/21 14:34:50;;;;;;;9.10;6.35;;;;;;;22.88;10.91;102418.16;5569464;32;34767;-66
2022/03/21 14:37:53;;;;;;;9.60;6.30;;;;;;;24.76;9.94;102418.97;5555756;32;33417;-66
2022/03/21 14:40:57;;;;;;;9.98;6.00;;;;;;;22.77;10.67;102418.72;5569049;32;33890;-66
2022/03/21 14:44:00;;;;;;;9.75;5.90;;;;;;;21.16;12.23;102417.50;5569636;32;34108;-66
2022/03/21 14:47:03;;;;;;;14.23;6.50;;;;;;;19.59;13.01;102415.72;5569476;32;34649;-66